Time;durP1;ratioP1;P1;durP2;ratioP2;P2;SDS_P1;SDS_P2;PMS_P1;PMS_P2;Temp;Humidity;BMP_temperature;BMP_pressure;BME280_temperature;BME280_humidity;BME280_pressure;Samples;Min_cycle;Max_cycle;Signal;HPM_P1;HPM_P2
2023/03/13 00:01:30;;;;;;;12.70;9.73;;;7.30;99.90;;;;;;5113950;28;20428;-52
2023/03/13 00:03:58;;;;;;;20.20;10.07;;;7.00;99.90;;;;;;5113808;28;20454;-52
2023/03/13 00:06:27;;;;;;;14.77;9.80;;;7.00;99.90;;;;;;5113983;28;20445;-52
2023/03/13 00:08:54;;;;;;;16.37;11.20;;;7.40;99.90;;;;;;5113458;28;20437;-52
2023/03/13 00:11:21;;;;;;;17.40;10.60;;;6.70;99.90;;;;;;5113887;28;20498;-52
2023/03/13 00:13:48;;;;;;;14.57;9.57;;;7.00;99.90;;;;;;5113734;28;20431;-52
2023/03/13 00:16:16;;;;;;;22.00;11.80;;;7.10;99.90;;;;;;5113642;28;20406;-52
2023/03/13 00:18:47;;;;;;;17.53;9.73;;;7.20;99.90;;;;;;5113521;28;20435;-52
2023/03/13 00:21:16;;;;;;;15.33;9.13;;;6.70;99.90;;;;;;5113722;28;20949;-52
2023/03/13 00:23:43;;;;;;;16.90;9.87;;;7.60;99.90;;;;;;5113487;28;21023;-52
2023/03/13 00:26:11;;;;;;;21.73;10.10;;;7.30;99.90;;;;;;5113718;28;20398;-52
2023/03/13 00:28:39;;;;;;;15.70;8.97;;;7.00;99.90;;;;;;5113160;28;20405;-51
2023/03/13 00:31:08;;;;;;;14.93;9.70;;;7.40;99.90;;;;;;5112051;28;20555;-52
2023/03/13 00:33:36;;;;;;;21.00;10.40;;;6.80;99.90;;;;;;5113403;28;20459;-52
2023/03/13 00:36:06;;;;;;;14.87;10.10;;;6.70;99.90;;;;;;5113419;28;20431;-52
2023/03/13 00:38:34;;;;;;;19.67;10.00;;;7.40;99.90;;;;;;5112899;28;20424;-52
2023/03/13 00:41:03;;;;;;;17.03;9.20;;;7.50;99.90;;;;;;5095527;28;20426;-52
2023/03/13 00:43:30;;;;;;;20.50;9.30;;;7.20;99.90;;;;;;5113210;28;20851;-52
2023/03/13 00:45:57;;;;;;;18.93;8.90;;;7.50;99.90;;;;;;5095241;28;20443;-52
2023/03/13 00:48:24;;;;;;;24.90;9.67;;;7.60;99.90;;;;;;5112790;28;20446;-52
2023/03/13 00:50:51;;;;;;;15.73;9.70;;;7.60;99.90;;;;;;5112990;28;20428;-52
2023/03/13 00:53:18;;;;;;;15.60;9.67;;;7.20;99.90;;;;;;5094358;28;20977;-52
2023/03/13 00:55:53;;;;;;;24.43;9.93;;;7.10;99.90;;;;;;5094702;28;20446;-52
2023/03/13 00:58:20;;;;;;;14.80;9.90;;;7.40;99.90;;;;;;5094347;28;20421;-51
2023/03/13 01:00:47;;;;;;;19.50;9.70;;;7.60;99.90;;;;;;5094766;28;20432;-52
2023/03/13 01:03:14;;;;;;;19.50;10.00;;;7.40;99.90;;;;;;5094531;28;21007;-52
2023/03/13 01:05:41;;;;;;;20.37;9.50;;;7.60;99.90;;;;;;5112901;28;20413;-51
2023/03/13 01:08:07;;;;;;;24.00;10.60;;;7.60;99.90;;;;;;5112388;28;20424;-51
2023/03/13 01:10:34;;;;;;;19.00;10.10;;;7.50;99.90;;;;;;5094488;28;20452;-52
2023/03/13 01:13:03;;;;;;;12.17;8.80;;;7.50;99.90;;;;;;5094417;28;20493;-52
2023/03/13 01:15:31;;;;;;;21.43;10.10;;;7.50;99.90;;;;;;5094469;28;20477;-52
2023/03/13 01:17:57;;;;;;;20.87;9.73;;;7.50;99.90;;;;;;5112669;28;20893;-52
2023/03/13 01:20:24;;;;;;;24.67;9.80;;;7.70;99.90;;;;;;5112307;28;20404;-52
2023/03/13 01:22:50;;;;;;;16.83;9.50;;;7.80;99.90;;;;;;5094527;28;20428;-52
2023/03/13 01:25:18;;;;;;;20.77;9.80;;;7.50;99.90;;;;;;5112423;28;20952;-52
2023/03/13 01:27:46;;;;;;;21.73;9.93;;;7.90;99.90;;;;;;5112748;28;20466;-52
2023/03/13 01:30:14;;;;;;;15.87;9.13;;;7.70;99.90;;;;;;5112284;28;20456;-52
2023/03/13 01:32:42;;;;;;;15.20;9.80;;;7.80;99.90;;;;;;5094309;28;20498;-52
2023/03/13 01:35:09;;;;;;;23.90;9.87;;;7.90;99.90;;;;;;5094526;28;20983;-52
2023/03/13 01:37:37;;;;;;;16.93;9.70;;;7.40;99.90;;;;;;5094730;28;20451;-52
2023/03/13 01:40:04;;;;;;;21.47;10.90;;;7.90;99.90;;;;;;5094125;28;20450;-51
2023/03/13 01:42:31;;;;;;;17.30;8.90;;;7.80;99.90;;;;;;5094415;28;20446;-52
2023/03/13 01:44:58;;;;;;;16.57;9.87;;;7.50;99.90;;;;;;5094233;28;20448;-52
2023/03/13 01:47:28;;;;;;;22.10;9.67;;;8.00;99.90;;;;;;5094599;28;20881;-52
2023/03/13 01:50:09;;;;;;;19.10;9.67;;;7.80;99.90;;;;;;5093988;28;20534;-52
2023/03/13 01:52:50;;;;;;;17.90;10.67;;;7.90;99.90;;;;;;5094425;28;20453;-51
2023/03/13 01:55:21;;;;;;;19.93;9.03;;;7.70;99.90;;;;;;5094265;28;20797;-52
2023/03/13 01:57:54;;;;;;;23.93;8.97;;;7.60;99.90;;;;;;5094166;28;20426;-52
2023/03/13 02:00:24;;;;;;;35.37;11.90;;;8.00;99.90;;;;;;5110989;28;20449;-51
2023/03/13 02:02:55;;;;;;;14.53;8.67;;;8.00;99.90;;;;;;5095583;28;20459;-52
2023/03/13 02:05:25;;;;;;;28.83;11.03;;;7.50;99.90;;;;;;5114173;28;20432;-52
2023/03/13 02:07:57;;;;;;;16.10;8.70;;;8.00;99.90;;;;;;5098586;28;20459;-51
2023/03/13 02:10:26;;;;;;;13.30;8.87;;;7.70;99.90;;;;;;5098031;28;20779;-51
2023/03/13 02:12:57;;;;;;;12.87;8.60;;;7.60;99.90;;;;;;5114881;28;20467;-51
2023/03/13 02:15:27;;;;;;;17.10;9.33;;;8.10;99.90;;;;;;5116484;28;20440;-51
2023/03/13 02:17:56;;;;;;;16.20;8.47;;;8.10;99.90;;;;;;5097961;28;20425;-51
2023/03/13 02:20:24;;;;;;;17.63;7.73;;;7.90;99.90;;;;;;5097699;28;20453;-51
2023/03/13 02:22:59;;;;;;;14.43;7.97;;;8.00;99.90;;;;;;5098145;28;20450;-51
2023/03/13 02:25:35;;;;;;;13.00;7.90;;;7.90;99.90;;;;;;5114981;28;20813;-52
2023/03/13 02:28:05;;;;;;;13.80;8.80;;;8.10;99.90;;;;;;5097618;28;20455;-52
2023/03/13 02:30:35;;;;;;;12.10;7.50;;;7.70;99.90;;;;;;5097707;28;21036;-51
2023/03/13 02:33:04;;;;;;;18.37;7.93;;;8.00;99.90;;;;;;5097374;28;20479;-51
2023/03/13 02:35:33;;;;;;;14.37;8.57;;;8.00;99.90;;;;;;5114625;28;20824;-52
2023/03/13 02:38:06;;;;;;;11.47;8.20;;;8.30;99.90;;;;;;5114526;28;20972;-52
2023/03/13 02:40:37;;;;;;;14.67;8.00;;;8.10;99.90;;;;;;5097607;28;20448;-52
2023/03/13 02:43:09;;;;;;;11.50;7.73;;;8.00;99.90;;;;;;5097435;28;20545;-52
2023/03/13 02:45:35;;;;;;;15.33;7.60;;;8.00;99.90;;;;;;5115868;28;20804;-51
2023/03/13 02:48:02;;;;;;;16.90;8.00;;;7.90;99.90;;;;;;5115535;28;20409;-52
2023/03/13 02:50:29;;;;;;;15.57;8.07;;;8.00;99.90;;;;;;5096915;28;20944;-52
2023/03/13 02:52:59;;;;;;;15.13;8.00;;;7.60;99.90;;;;;;5115307;28;20453;-51
2023/03/13 02:55:30;;;;;;;18.43;7.47;;;8.10;99.90;;;;;;5097463;28;20453;-52
2023/03/13 02:57:58;;;;;;;14.03;7.10;;;8.00;99.90;;;;;;5114051;28;20530;-52
2023/03/13 03:00:25;;;;;;;22.30;8.60;;;8.20;99.90;;;;;;5114941;28;20435;-52
2023/03/13 03:02:52;;;;;;;16.77;8.40;;;7.80;99.90;;;;;;5115130;28;20796;-51
2023/03/13 03:05:20;;;;;;;13.07;8.13;;;8.40;99.90;;;;;;5096761;28;20418;-52
2023/03/13 03:07:47;;;;;;;16.00;7.83;;;8.10;99.90;;;;;;5097060;28;20418;-52
2023/03/13 03:10:15;;;;;;;9.70;7.07;;;8.40;99.90;;;;;;5114887;28;20410;-51
2023/03/13 03:12:42;;;;;;;19.30;7.40;;;8.00;99.90;;;;;;5114978;28;20478;-52
2023/03/13 03:15:11;;;;;;;10.20;6.90;;;8.40;99.90;;;;;;5115025;28;20817;-51
2023/03/13 03:17:42;;;;;;;15.77;7.50;;;8.10;99.90;;;;;;5096282;28;20450;-52
2023/03/13 03:20:11;;;;;;;15.33;6.83;;;8.40;99.90;;;;;;5096292;28;20636;-52
2023/03/13 03:22:41;;;;;;;20.00;7.10;;;8.40;99.90;;;;;;5115614;28;20476;-52
2023/03/13 03:25:09;;;;;;;16.10;8.13;;;8.20;99.90;;;;;;5102144;28;21001;-52
2023/03/13 03:27:36;;;;;;;16.30;8.53;;;8.10;99.90;;;;;;5113761;28;20430;-52
2023/03/13 03:30:06;;;;;;;10.97;6.90;;;8.30;99.90;;;;;;5095994;28;20546;-52
2023/03/13 03:32:36;;;;;;;17.27;7.17;;;8.00;99.90;;;;;;5096366;28;20570;-52
2023/03/13 03:35:03;;;;;;;18.63;8.13;;;8.20;99.90;;;;;;5096261;28;20870;-51
2023/03/13 03:37:29;;;;;;;12.60;7.17;;;7.90;99.90;;;;;;5113435;28;20426;-51
2023/03/13 03:39:57;;;;;;;15.67;7.20;;;8.10;99.90;;;;;;5096009;28;20447;-51
2023/03/13 03:42:23;;;;;;;17.27;7.10;;;8.60;99.90;;;;;;5096173;28;20971;-52
2023/03/13 03:44:50;;;;;;;16.20;7.10;;;8.20;99.90;;;;;;5096026;28;20453;-51
2023/03/13 03:47:18;;;;;;;13.90;7.10;;;7.80;99.90;;;;;;5113179;28;20559;-51
2023/03/13 03:49:48;;;;;;;18.30;7.00;;;8.20;99.90;;;;;;5095733;28;20511;-51
2023/03/13 03:52:16;;;;;;;17.37;6.97;;;8.30;99.90;;;;;;5096161;28;20574;-51
2023/03/13 03:54:44;;;;;;;15.53;6.27;;;8.50;99.90;;;;;;5095948;28;20939;-51
2023/03/13 03:57:11;;;;;;;17.37;6.27;;;7.90;99.90;;;;;;5096007;28;20459;-51
2023/03/13 03:59:38;;;;;;;16.30;7.53;;;8.10;99.90;;;;;;5095529;28;20440;-51
2023/03/13 04:02:09;;;;;;;16.73;7.37;;;7.90;99.90;;;;;;5095805;28;20527;-51
2023/03/13 04:04:36;;;;;;;14.37;7.30;;;8.30;99.90;;;;;;5114093;28;20415;-51
2023/03/13 04:07:20;;;;;;;13.07;6.53;;;8.40;99.90;;;;;;5095687;28;20504;-50
2023/03/13 04:09:47;;;;;;;15.93;5.93;;;8.20;99.90;;;;;;5113557;28;20428;-51
2023/03/13 04:12:21;;;;;;;15.33;6.70;;;8.40;99.90;;;;;;5095555;28;20454;-51
2023/03/13 04:14:50;;;;;;;19.17;6.60;;;8.70;99.90;;;;;;5095547;28;20474;-51
2023/03/13 04:17:17;;;;;;;14.07;6.43;;;8.40;99.90;;;;;;5113839;28;20767;-51
2023/03/13 04:19:45;;;;;;;23.20;7.17;;;8.30;99.90;;;;;;5095094;28;20974;-52
2023/03/13 04:22:12;;;;;;;11.60;5.53;;;8.50;99.90;;;;;;5095510;28;20512;-52
2023/03/13 04:24:45;;;;;;;15.10;6.50;;;8.30;99.90;;;;;;5095060;28;20562;-52
2023/03/13 04:27:12;;;;;;;16.17;5.70;;;8.40;99.90;;;;;;5113456;28;20432;-51
2023/03/13 04:29:39;;;;;;;18.70;5.20;;;8.20;99.90;;;;;;5094426;28;20828;-51
2023/03/13 04:32:35;;;;;;;18.30;5.70;;;8.40;99.90;;;;;;5111911;28;20471;-50
2023/03/13 04:35:20;;;;;;;21.20;6.60;;;8.40;99.90;;;;;;5095157;28;20505;-51
2023/03/13 04:38:13;;;;;;;17.50;6.30;;;7.70;99.90;;;;;;5108910;28;20948;-51
2023/03/13 04:41:00;;;;;;;21.07;5.50;;;8.60;99.90;;;;;;5113546;28;20500;-52
2023/03/13 04:43:26;;;;;;;22.23;7.63;;;8.00;99.90;;;;;;5113465;28;20813;-51
2023/03/13 04:46:09;;;;;;;13.93;5.30;;;8.40;99.90;;;;;;5104637;28;20451;-52
2023/03/13 04:48:54;;;;;;;18.67;5.50;;;8.50;99.90;;;;;;5113532;28;20778;-52
2023/03/13 04:51:51;;;;;;;18.97;5.30;;;8.90;99.90;;;;;;5057668;28;20409;-51
2023/03/13 04:54:35;;;;;;;16.33;5.10;;;8.40;99.90;;;;;;5095128;28;20790;-52
2023/03/13 04:57:22;;;;;;;13.07;5.27;;;8.30;99.90;;;;;;5113357;28;20427;-52
2023/03/13 05:00:10;;;;;;;18.53;5.67;;;8.50;99.90;;;;;;5098112;28;20444;-51
2023/03/13 05:02:57;;;;;;;23.70;6.37;;;8.10;99.90;;;;;;5111855;28;20483;-52
2023/03/13 05:05:29;;;;;;;15.43;5.27;;;8.80;99.90;;;;;;5094856;28;20448;-51
2023/03/13 05:08:15;;;;;;;17.20;5.60;;;8.30;99.90;;;;;;5112638;28;20459;-51
2023/03/13 05:11:11;;;;;;;11.03;5.50;;;8.60;99.90;;;;;;5088672;28;20444;-52
2023/03/13 05:14:03;;;;;;;19.93;10.17;;;8.30;99.90;;;;;;5111483;28;20620;-52
2023/03/13 05:16:48;;;;;;;15.97;5.80;;;8.40;99.90;;;;;;5112991;28;20898;-52
2023/03/13 05:19:50;;;;;;;21.60;5.03;;;8.60;99.90;;;;;;5112227;28;20435;-52
2023/03/13 05:22:23;;;;;;;21.57;5.40;;;8.40;99.90;;;;;;5094250;28;20444;-52
2023/03/13 05:25:09;;;;;;;21.57;6.70;;;8.50;99.90;;;;;;5125006;22;20509;-52
2023/03/13 05:27:52;;;;;;;19.77;6.20;;;8.70;99.90;;;;;;5094906;28;20457;-52
2023/03/13 05:30:39;;;;;;;24.50;5.70;;;8.50;99.90;;;;;;5113322;28;20415;-52
2023/03/13 05:33:12;;;;;;;14.87;5.23;;;8.60;99.90;;;;;;5113095;28;20460;-52
2023/03/13 05:35:43;;;;;;;23.47;6.53;;;8.40;99.90;;;;;;5095103;28;20482;-52
2023/03/13 05:38:33;;;;;;;22.73;7.90;;;8.60;99.90;;;;;;5094539;28;20474;-51
2023/03/13 05:41:18;;;;;;;19.80;6.40;;;8.50;99.90;;;;;;5113491;28;20414;-52
2023/03/13 05:44:00;;;;;;;18.50;5.50;;;8.50;99.90;;;;;;5112764;28;20443;-52
2023/03/13 05:46:54;;;;;;;18.60;5.90;;;8.50;99.90;;;;;;5094677;28;20462;-52
2023/03/13 05:49:40;;;;;;;17.10;5.63;;;8.70;99.90;;;;;;5112076;28;20398;-51
2023/03/13 05:52:25;;;;;;;17.60;5.63;;;8.50;99.90;;;;;;5112502;28;20527;-51
2023/03/13 05:55:05;;;;;;;22.40;5.60;;;8.50;99.90;;;;;;5094163;28;20434;-51
2023/03/13 05:57:50;;;;;;;22.77;6.63;;;8.90;99.90;;;;;;5112445;28;20393;-52
2023/03/13 06:00:34;;;;;;;20.00;7.40;;;8.10;99.90;;;;;;5112532;28;20450;-51
2023/03/13 06:03:22;;;;;;;21.80;7.60;;;8.70;99.90;;;;;;5101397;28;20495;-52
2023/03/13 06:05:57;;;;;;;19.63;7.03;;;8.70;99.90;;;;;;5094380;28;20510;-52
2023/03/13 06:08:32;;;;;;;14.60;6.83;;;8.60;99.90;;;;;;5093864;28;20503;-50
2023/03/13 06:11:00;;;;;;;16.43;5.67;;;8.40;99.90;;;;;;5094068;28;20430;-51
2023/03/13 06:13:27;;;;;;;13.30;5.60;;;8.80;99.90;;;;;;5110775;28;20485;-52
2023/03/13 06:15:57;;;;;;;17.80;5.40;;;8.70;99.90;;;;;;5094026;28;20478;-54
2023/03/13 06:18:55;;;;;;;21.07;6.67;;;8.60;99.90;;;;;;5096982;28;20777;-53
2023/03/13 06:21:21;;;;;;;20.43;6.40;;;8.70;99.90;;;;;;5111866;28;20895;-52
2023/03/13 06:23:48;;;;;;;14.90;6.50;;;8.80;99.90;;;;;;5111783;28;20527;-53
2023/03/13 06:26:15;;;;;;;20.00;5.30;;;8.70;99.90;;;;;;5111992;28;20799;-52
2023/03/13 06:28:41;;;;;;;20.37;6.33;;;8.80;99.90;;;;;;5111454;28;20406;-51
2023/03/13 06:31:08;;;;;;;17.63;6.63;;;9.20;99.90;;;;;;5111756;28;20776;-54
2023/03/13 06:33:36;;;;;;;32.00;7.83;;;8.80;99.90;;;;;;5109985;28;20486;-52
2023/03/13 06:36:04;;;;;;;15.97;6.50;;;9.10;99.90;;;;;;5111729;28;20852;-52
2023/03/13 06:38:31;;;;;;;23.00;6.70;;;8.90;99.90;;;;;;5111056;28;20440;-52
2023/03/13 06:40:58;;;;;;;14.67;5.93;;;8.90;99.90;;;;;;5111835;28;20459;-52
2023/03/13 06:43:25;;;;;;;19.83;6.13;;;9.00;99.90;;;;;;5111838;28;20427;-52
2023/03/13 06:45:52;;;;;;;16.83;5.67;;;9.00;99.90;;;;;;5110669;28;20402;-52
2023/03/13 06:48:19;;;;;;;18.80;5.30;;;8.90;99.90;;;;;;5111083;28;20442;-52
2023/03/13 06:50:46;;;;;;;16.87;6.20;;;8.90;99.90;;;;;;5111349;28;20437;-53
2023/03/13 06:53:16;;;;;;;20.23;6.00;;;9.10;99.90;;;;;;5096648;28;20546;-52
2023/03/13 06:55:43;;;;;;;17.30;6.70;;;9.10;99.90;;;;;;5115232;28;20470;-51
2023/03/13 06:58:10;;;;;;;24.17;6.20;;;8.80;99.90;;;;;;5114765;28;20415;-54
2023/03/13 07:00:38;;;;;;;19.20;6.57;;;9.10;99.90;;;;;;5115674;28;20611;-51
2023/03/13 07:03:05;;;;;;;21.87;5.67;;;9.20;99.90;;;;;;5115054;28;20905;-53
2023/03/13 07:05:31;;;;;;;18.30;5.87;;;9.00;99.90;;;;;;5096991;28;20991;-51
2023/03/13 07:07:58;;;;;;;31.57;6.23;;;9.20;99.90;;;;;;5115017;28;20407;-52
2023/03/13 07:10:26;;;;;;;12.03;5.20;;;8.70;99.90;;;;;;5114687;28;20402;-53
2023/03/13 07:12:52;;;;;;;19.13;6.67;;;9.60;99.90;;;;;;5114731;28;20455;-54
2023/03/13 07:15:19;;;;;;;24.23;7.00;;;9.30;99.90;;;;;;5114700;28;21029;-52
2023/03/13 07:17:46;;;;;;;22.80;6.70;;;9.50;99.90;;;;;;5115176;28;20799;-52
2023/03/13 07:20:13;;;;;;;19.67;8.23;;;9.40;99.90;;;;;;5114569;28;20402;-52
2023/03/13 07:22:39;;;;;;;19.30;6.17;;;9.40;99.90;;;;;;5115625;28;20403;-52
2023/03/13 07:25:08;;;;;;;20.57;6.50;;;9.20;99.90;;;;;;5114330;28;20469;-51
2023/03/13 07:27:37;;;;;;;24.80;6.67;;;9.40;99.90;;;;;;5114815;28;20460;-52
2023/03/13 07:30:04;;;;;;;16.53;6.10;;;9.50;99.90;;;;;;5114130;28;20479;-52
2023/03/13 07:32:32;;;;;;;20.50;6.37;;;9.60;99.90;;;;;;5114288;28;20440;-52
2023/03/13 07:34:59;;;;;;;20.37;5.60;;;9.70;99.90;;;;;;5114407;28;20571;-51
2023/03/13 07:37:26;;;;;;;25.70;5.97;;;9.50;99.90;;;;;;5114584;28;20410;-52
2023/03/13 07:39:52;;;;;;;20.73;6.53;;;9.50;99.90;;;;;;5114026;28;20422;-52
2023/03/13 07:42:19;;;;;;;22.63;6.73;;;9.30;99.90;;;;;;5114044;28;20497;-52
2023/03/13 07:44:47;;;;;;;14.00;6.70;;;9.50;99.90;;;;;;5114044;28;20776;-51
2023/03/13 07:47:14;;;;;;;20.87;7.17;;;9.60;99.90;;;;;;5114493;28;20423;-52
2023/03/13 07:49:42;;;;;;;13.90;5.67;;;9.70;99.90;;;;;;5113829;28;20442;-51
2023/03/13 07:52:09;;;;;;;24.97;5.50;;;10.10;99.90;;;;;;5114349;28;20995;-52
2023/03/13 07:54:36;;;;;;;25.23;6.87;;;9.70;99.90;;;;;;5113655;28;20506;-52
2023/03/13 07:57:02;;;;;;;17.47;6.00;;;9.80;99.90;;;;;;5113815;28;20812;-53
2023/03/13 07:59:30;;;;;;;23.47;6.60;;;9.70;99.90;;;;;;5113541;28;20413;-52
2023/03/13 08:01:58;;;;;;;15.80;5.63;;;9.80;99.90;;;;;;5112531;28;20539;-52
2023/03/13 08:04:24;;;;;;;19.57;6.40;;;9.80;99.90;;;;;;5112648;28;20454;-53
2023/03/13 08:06:53;;;;;;;16.07;6.10;;;9.90;99.90;;;;;;5113881;28;20754;-52
2023/03/13 08:09:20;;;;;;;23.63;7.07;;;10.00;99.90;;;;;;5113189;28;20428;-52
2023/03/13 08:11:47;;;;;;;16.87;5.40;;;9.40;99.90;;;;;;5113466;28;20406;-52
2023/03/13 08:14:14;;;;;;;24.23;7.40;;;9.60;99.90;;;;;;5113439;28;20476;-51
2023/03/13 08:16:41;;;;;;;27.63;6.47;;;9.80;99.90;;;;;;5113443;28;20435;-52
2023/03/13 08:19:10;;;;;;;24.40;7.60;;;9.90;99.90;;;;;;5113027;28;20431;-52
2023/03/13 08:21:37;;;;;;;19.37;6.83;;;9.40;99.90;;;;;;5113491;28;20946;-53
2023/03/13 08:24:06;;;;;;;20.20;7.18;;;9.30;99.90;;;;;;5111833;28;20896;-53
2023/03/13 08:26:35;;;;;;;20.60;7.10;;;9.90;99.90;;;;;;5113385;28;20670;-51
2023/03/13 08:29:04;;;;;;;17.20;6.97;;;10.20;99.90;;;;;;5112875;28;20958;-51
2023/03/13 08:31:33;;;;;;;11.10;5.00;;;10.10;99.90;;;;;;5113304;28;20446;-52
2023/03/13 08:34:00;;;;;;;19.63;6.50;;;10.10;99.90;;;;;;5112968;28;20491;-52
2023/03/13 08:36:31;;;;;;;19.83;6.30;;;10.40;99.90;;;;;;5113291;28;20432;-52
2023/03/13 08:39:00;;;;;;;14.83;4.70;;;10.10;99.90;;;;;;5112546;28;20944;-53
2023/03/13 08:41:29;;;;;;;14.93;6.03;;;9.90;99.90;;;;;;5113098;28;20410;-52
2023/03/13 08:43:56;;;;;;;19.97;5.50;;;10.10;99.90;;;;;;5113262;28;20445;-53
2023/03/13 08:46:24;;;;;;;17.13;6.00;;;9.90;99.90;;;;;;5113465;28;20912;-52
2023/03/13 08:48:51;;;;;;;20.30;6.10;;;9.70;99.90;;;;;;5112401;28;20403;-53
2023/03/13 08:51:19;;;;;;;13.97;4.87;;;9.90;99.90;;;;;;5112847;28;20403;-52
2023/03/13 08:53:48;;;;;;;16.90;5.07;;;9.80;99.90;;;;;;5113133;28;20495;-52
2023/03/13 08:56:16;;;;;;;14.30;5.03;;;9.70;99.90;;;;;;5112814;28;20420;-51
2023/03/13 08:58:43;;;;;;;13.57;5.73;;;10.40;99.90;;;;;;5112243;28;20823;-51
2023/03/13 09:01:11;;;;;;;11.03;5.07;;;9.50;99.90;;;;;;5112625;28;20407;-52
2023/03/13 09:03:38;;;;;;;17.93;8.70;;;9.90;99.90;;;;;;5112460;28;20601;-51
2023/03/13 09:06:06;;;;;;;19.40;6.20;;;10.10;99.90;;;;;;5111698;28;20428;-52
2023/03/13 09:08:33;;;;;;;16.57;5.83;;;10.30;99.90;;;;;;5112250;28;20468;-52
2023/03/13 09:11:03;;;;;;;12.97;4.50;;;10.00;99.90;;;;;;5111373;28;20444;-51
2023/03/13 09:13:31;;;;;;;17.67;6.40;;;10.10;99.90;;;;;;5111586;28;20445;-60
2023/03/13 09:15:59;;;;;;;11.50;4.93;;;10.60;99.90;;;;;;5112182;28;20199;-53
2023/03/13 09:18:27;;;;;;;17.53;6.57;;;10.50;99.90;;;;;;5112265;28;20435;-52
2023/03/13 09:20:54;;;;;;;13.57;5.33;;;10.60;99.90;;;;;;5112537;28;20422;-52
2023/03/13 09:23:22;;;;;;;11.30;4.80;;;9.90;99.90;;;;;;5112331;28;20523;-52
2023/03/13 09:25:48;;;;;;;14.80;4.60;;;10.20;99.90;;;;;;5112349;28;20445;-53
2023/03/13 09:28:16;;;;;;;18.77;6.30;;;9.90;99.90;;;;;;5111956;28;20501;-52
2023/03/13 09:30:43;;;;;;;9.97;5.30;;;10.40;99.90;;;;;;5112551;28;20436;-52
2023/03/13 09:33:10;;;;;;;17.70;5.33;;;10.40;99.90;;;;;;5112382;28;20419;-52
2023/03/13 09:35:38;;;;;;;11.40;4.00;;;10.30;99.90;;;;;;5112028;28;20516;-52
2023/03/13 09:38:05;;;;;;;8.73;3.80;;;10.50;99.90;;;;;;5112127;28;20898;-51
2023/03/13 09:40:38;;;;;;;15.23;5.70;;;10.50;99.90;;;;;;5112112;28;20429;-52
2023/03/13 09:43:04;;;;;;;9.20;4.17;;;10.00;99.90;;;;;;5112117;28;20433;-52
2023/03/13 09:45:36;;;;;;;12.83;3.70;;;10.40;99.90;;;;;;5112143;28;20978;-51
2023/03/13 09:48:06;;;;;;;11.47;4.50;;;10.40;99.90;;;;;;5112426;28;20800;-52
2023/03/13 09:50:35;;;;;;;12.83;5.17;;;10.30;99.90;;;;;;5112257;28;20432;-52
2023/03/13 09:53:06;;;;;;;13.00;5.97;;;10.40;99.90;;;;;;5110963;28;20422;-52
2023/03/13 09:55:36;;;;;;;11.80;5.37;;;10.90;99.90;;;;;;5112071;28;20290;-51
2023/03/13 09:58:11;;;;;;;14.00;4.90;;;10.70;99.90;;;;;;5112128;28;20497;-51
2023/03/13 10:00:42;;;;;;;14.20;5.40;;;10.70;99.90;;;;;;5112005;28;20406;-52
2023/03/13 10:03:17;;;;;;;15.37;4.90;;;10.30;99.90;;;;;;5112247;28;20400;-52
2023/03/13 10:05:47;;;;;;;9.37;4.67;;;10.90;99.90;;;;;;5111846;28;20421;-51
2023/03/13 10:08:17;;;;;;;10.33;4.37;;;10.60;99.90;;;;;;5111754;28;20395;-52
2023/03/13 10:10:48;;;;;;;14.13;5.30;;;10.70;99.90;;;;;;5112042;28;20480;-51
2023/03/13 10:13:22;;;;;;;9.30;4.37;;;10.60;99.90;;;;;;5112142;28;20437;-52
2023/03/13 10:15:55;;;;;;;9.47;4.23;;;10.90;99.90;;;;;;5111833;28;20455;-52
2023/03/13 10:18:24;;;;;;;14.03;4.53;;;10.80;99.90;;;;;;5111317;28;20396;-51
2023/03/13 10:20:53;;;;;;;15.10;4.57;;;10.80;99.90;;;;;;5111802;28;20431;-52
2023/03/13 10:23:26;;;;;;;13.20;4.83;;;11.00;99.90;;;;;;5111848;28;20432;-52
2023/03/13 10:25:53;;;;;;;12.10;4.07;;;10.80;99.90;;;;;;5111773;28;20487;-52
2023/03/13 10:28:21;;;;;;;11.20;3.60;;;11.00;99.90;;;;;;5115341;28;20436;-52
2023/03/13 10:30:51;;;;;;;12.27;4.03;;;10.80;99.90;;;;;;5115642;28;20440;-52
2023/03/13 10:33:22;;;;;;;15.73;4.63;;;11.00;99.90;;;;;;5115949;28;20439;-52
2023/03/13 10:36:05;;;;;;;7.87;3.40;;;11.10;99.90;;;;;;5115804;28;20484;-52
2023/03/13 10:38:35;;;;;;;8.55;3.53;;;11.20;99.90;;;;;;5114524;28;20760;-52
2023/03/13 10:41:08;;;;;;;7.67;3.40;;;11.40;99.90;;;;;;5115509;28;20195;-51
2023/03/13 10:43:35;;;;;;;9.73;3.80;;;11.60;99.90;;;;;;5115407;28;20968;-52
2023/03/13 10:46:03;;;;;;;7.07;3.83;;;11.20;99.90;;;;;;5115305;28;20437;-52
2023/03/13 10:48:35;;;;;;;7.10;3.30;;;11.80;99.90;;;;;;5115102;28;20469;-52
2023/03/13 10:51:02;;;;;;;10.90;3.70;;;11.90;99.90;;;;;;5115273;28;20533;-52
2023/03/13 10:53:34;;;;;;;9.27;4.00;;;11.40;99.90;;;;;;5115373;28;20429;-52
2023/03/13 10:56:08;;;;;;;10.60;3.60;;;12.20;99.90;;;;;;5113620;28;20457;-52
2023/03/13 10:58:41;;;;;;;6.47;2.70;;;12.00;99.90;;;;;;5114881;28;20427;-52
2023/03/13 11:01:18;;;;;;;41.17;16.53;;;12.20;99.90;;;;;;5115509;28;20407;-52
2023/03/13 11:03:47;;;;;;;9.87;4.53;;;12.20;99.90;;;;;;5115171;28;20429;-52
2023/03/13 11:06:26;;;;;;;6.57;3.23;;;12.50;99.90;;;;;;5115302;28;20406;-52
2023/03/13 11:09:01;;;;;;;5.50;3.60;;;12.80;99.90;;;;;;5114632;28;20405;-52
2023/03/13 11:11:29;;;;;;;9.23;3.20;;;12.70;99.90;;;;;;5115267;28;20768;-52
2023/03/13 11:14:07;;;;;;;7.60;3.30;;;12.60;99.90;;;;;;5096533;28;20453;-51
2023/03/13 11:16:44;;;;;;;6.17;2.97;;;12.90;99.90;;;;;;5115082;28;20423;-53
2023/03/13 11:19:33;;;;;;;7.40;2.97;;;12.80;99.90;;;;;;5112624;28;20846;-52
2023/03/13 11:22:16;;;;;;;6.53;3.17;;;13.10;99.90;;;;;;5115113;28;20442;-53
2023/03/13 11:24:49;;;;;;;5.47;2.93;;;13.20;99.90;;;;;;5126953;22;20506;-54
2023/03/13 11:27:26;;;;;;;3.77;2.40;;;13.30;99.90;;;;;;5114002;28;20435;-51
2023/03/13 11:30:05;;;;;;;6.10;2.97;;;13.20;99.90;;;;;;5112290;28;20423;-53
2023/03/13 11:32:41;;;;;;;5.27;2.17;;;13.70;99.90;;;;;;5113962;28;20803;-51
2023/03/13 11:35:19;;;;;;;4.77;1.97;;;13.50;99.90;;;;;;5113768;28;20452;-50
2023/03/13 11:37:47;;;;;;;5.23;2.50;;;13.60;99.90;;;;;;5113300;28;20432;-51
2023/03/13 11:40:20;;;;;;;7.53;2.47;;;13.30;99.90;;;;;;5112927;28;20440;-50
2023/03/13 11:43:08;;;;;;;4.60;2.20;;;13.70;99.90;;;;;;5113609;28;20436;-51
2023/03/13 11:45:56;;;;;;;3.53;2.50;;;14.00;99.90;;;;;;5113257;28;20479;-51
2023/03/13 11:48:42;;;;;;;5.43;3.37;;;13.90;99.90;;;;;;5113253;28;20468;-51
2023/03/13 11:51:16;;;;;;;5.60;2.80;;;13.80;99.90;;;;;;5113222;28;20890;-50
2023/03/13 11:54:09;;;;;;;3.40;2.13;;;14.00;99.90;;;;;;5113307;28;20428;-51
2023/03/13 11:56:43;;;;;;;6.30;2.33;;;14.10;99.90;;;;;;5113331;28;20464;-52
2023/03/13 11:59:27;;;;;;;4.20;2.60;;;13.70;99.90;;;;;;5112803;28;20428;-49
2023/03/13 12:01:59;;;;;;;3.80;2.40;;;13.70;99.90;;;;;;5113205;28;20412;-51
2023/03/13 12:04:34;;;;;;;4.10;2.23;;;14.30;99.90;;;;;;5113180;28;20476;-52
2023/03/13 12:07:03;;;;;;;3.63;2.10;;;14.20;99.90;;;;;;5113102;28;20453;-50
2023/03/13 12:09:34;;;;;;;4.93;1.90;;;14.30;99.90;;;;;;5112448;28;20426;-53
2023/03/13 12:12:04;;;;;;;4.10;2.00;;;14.30;99.90;;;;;;5094743;28;20218;-52
2023/03/13 12:14:34;;;;;;;2.97;1.77;;;14.40;99.90;;;;;;5112195;28;20514;-55
2023/03/13 12:17:03;;;;;;;6.75;2.40;;;14.70;99.90;;;;;;5111802;28;20728;-51
2023/03/13 12:19:37;;;;;;;4.47;2.50;;;14.90;99.90;;;;;;5112427;28;20249;-52
2023/03/13 12:22:13;;;;;;;3.43;2.17;;;14.90;99.90;;;;;;5112815;28;20432;-51
2023/03/13 12:24:46;;;;;;;4.60;2.20;;;14.80;99.90;;;;;;5112782;28;20837;-52
2023/03/13 12:27:18;;;;;;;3.40;2.60;;;14.70;99.90;;;;;;5112945;28;20437;-52
2023/03/13 12:29:53;;;;;;;5.33;1.97;;;15.10;99.90;;;;;;5112028;28;20778;-50
2023/03/13 12:32:25;;;;;;;4.70;2.73;;;14.90;99.90;;;;;;5112179;28;20402;-49
2023/03/13 12:35:00;;;;;;;4.63;1.80;;;14.90;99.90;;;;;;5112759;28;20509;-57
2023/03/13 12:37:34;;;;;;;2.63;1.67;;;14.80;99.90;;;;;;5112056;28;20447;-52
2023/03/13 12:40:11;;;;;;;4.50;2.20;;;14.80;99.90;;;;;;5112179;28;20436;-52
2023/03/13 12:42:45;;;;;;;3.40;2.17;;;15.00;99.90;;;;;;5112188;28;21025;-51
2023/03/13 12:45:17;;;;;;;3.40;1.70;;;15.10;99.90;;;;;;5112381;28;20430;-52
2023/03/13 12:48:16;;;;;;;3.40;2.00;;;15.10;99.90;;;;;;5112534;28;20443;-53
2023/03/13 12:51:01;;;;;;;3.50;1.87;;;15.00;99.90;;;;;;5112065;28;20748;-51
2023/03/13 12:53:48;;;;;;;4.13;2.00;;;15.00;99.90;;;;;;5112475;28;20471;-51
2023/03/13 12:56:39;;;;;;;4.13;1.80;;;15.30;99.90;;;;;;5112553;28;20479;-50
2023/03/13 12:59:08;;;;;;;3.40;1.67;;;14.90;99.90;;;;;;5110806;28;20467;-52
2023/03/13 13:01:39;;;;;;;3.20;1.90;;;14.80;99.90;;;;;;5112189;28;20407;-51
2023/03/13 13:04:10;;;;;;;7.17;5.90;;;14.80;99.90;;;;;;5112108;28;20508;-51
2023/03/13 13:06:59;;;;;;;4.97;2.37;;;15.10;99.90;;;;;;5110767;28;20960;-52
2023/03/13 13:09:27;;;;;;;5.17;1.73;;;15.20;99.90;;;;;;5111624;28;20431;-51